sensor_id;sensor_type;location;lat;lon;timestamp;P1;durP1;ratioP1;P2;durP2;ratioP2
2848;SDS011;59355;52.416;13.412;2023-04-06T00:00:07;13.53;;;12.43;;
2848;SDS011;59355;52.416;13.412;2023-04-06T00:02:33;13.00;;;11.77;;
2848;SDS011;59355;52.416;13.412;2023-04-06T00:04:59;13.33;;;12.10;;
2848;SDS011;59355;52.416;13.412;2023-04-06T00:07:25;13.57;;;12.13;;
2848;SDS011;59355;52.416;13.412;2023-04-06T00:09:51;13.47;;;12.20;;
2848;SDS011;59355;52.416;13.412;2023-04-06T00:12:16;13.93;;;12.53;;
2848;SDS011;59355;52.416;13.412;2023-04-06T00:14:41;13.67;;;12.47;;
2848;SDS011;59355;52.416;13.412;2023-04-06T00:17:07;14.43;;;13.03;;
2848;SDS011;59355;52.416;13.412;2023-04-06T00:19:32;12.43;;;11.23;;
2848;SDS011;59355;52.416;13.412;2023-04-06T00:21:58;14.00;;;12.70;;
2848;SDS011;59355;52.416;13.412;2023-04-06T00:24:23;13.10;;;11.93;;
2848;SDS011;59355;52.416;13.412;2023-04-06T00:26:48;14.33;;;12.80;;
2848;SDS011;59355;52.416;13.412;2023-04-06T00:29:14;13.53;;;11.77;;
2848;SDS011;59355;52.416;13.412;2023-04-06T00:31:39;13.93;;;12.73;;
2848;SDS011;59355;52.416;13.412;2023-04-06T00:34:05;12.43;;;11.30;;
2848;SDS011;59355;52.416;13.412;2023-04-06T00:36:30;14.37;;;12.87;;
2848;SDS011;59355;52.416;13.412;2023-04-06T00:38:56;14.53;;;12.70;;
2848;SDS011;59355;52.416;13.412;2023-04-06T00:41:21;13.07;;;11.80;;
2848;SDS011;59355;52.416;13.412;2023-04-06T00:43:47;15.17;;;13.57;;
2848;SDS011;59355;52.416;13.412;2023-04-06T00:46:12;13.07;;;11.77;;
2848;SDS011;59355;52.416;13.412;2023-04-06T00:48:37;13.63;;;12.23;;
2848;SDS011;59355;52.416;13.412;2023-04-06T00:51:04;13.83;;;12.17;;
2848;SDS011;59355;52.416;13.412;2023-04-06T00:53:29;13.93;;;12.57;;
2848;SDS011;59355;52.416;13.412;2023-04-06T00:55:54;15.37;;;12.10;;
2848;SDS011;59355;52.416;13.412;2023-04-06T00:58:20;13.67;;;12.43;;
2848;SDS011;59355;52.416;13.412;2023-04-06T01:00:45;13.97;;;12.77;;
2848;SDS011;59355;52.416;13.412;2023-04-06T01:03:12;13.97;;;12.63;;
2848;SDS011;59355;52.416;13.412;2023-04-06T01:05:37;18.80;;;12.40;;
2848;SDS011;59355;52.416;13.412;2023-04-06T01:08:05;13.40;;;12.00;;
2848;SDS011;59355;52.416;13.412;2023-04-06T01:10:31;13.80;;;12.60;;
2848;SDS011;59355;52.416;13.412;2023-04-06T01:12:56;14.57;;;13.20;;
2848;SDS011;59355;52.416;13.412;2023-04-06T01:15:22;13.43;;;12.13;;
2848;SDS011;59355;52.416;13.412;2023-04-06T01:17:48;14.27;;;12.80;;
2848;SDS011;59355;52.416;13.412;2023-04-06T01:20:13;14.60;;;13.30;;
2848;SDS011;59355;52.416;13.412;2023-04-06T01:22:39;13.33;;;12.10;;
2848;SDS011;59355;52.416;13.412;2023-04-06T01:25:04;13.60;;;11.37;;
2848;SDS011;59355;52.416;13.412;2023-04-06T01:27:30;12.70;;;11.43;;
2848;SDS011;59355;52.416;13.412;2023-04-06T01:29:55;13.87;;;12.57;;
2848;SDS011;59355;52.416;13.412;2023-04-06T01:32:21;12.87;;;11.60;;
2848;SDS011;59355;52.416;13.412;2023-04-06T01:34:46;12.80;;;11.67;;
2848;SDS011;59355;52.416;13.412;2023-04-06T01:37:12;15.70;;;14.20;;
2848;SDS011;59355;52.416;13.412;2023-04-06T01:39:37;13.43;;;12.23;;
2848;SDS011;59355;52.416;13.412;2023-04-06T01:42:02;13.77;;;12.57;;
2848;SDS011;59355;52.416;13.412;2023-04-06T01:44:28;14.07;;;12.57;;
2848;SDS011;59355;52.416;13.412;2023-04-06T01:46:55;14.30;;;12.80;;
2848;SDS011;59355;52.416;13.412;2023-04-06T01:49:20;14.00;;;12.60;;
2848;SDS011;59355;52.416;13.412;2023-04-06T01:51:45;14.80;;;13.43;;
2848;SDS011;59355;52.416;13.412;2023-04-06T01:54:11;14.10;;;12.80;;
2848;SDS011;59355;52.416;13.412;2023-04-06T01:56:36;13.97;;;12.67;;
2848;SDS011;59355;52.416;13.412;2023-04-06T01:59:01;13.67;;;12.43;;
2848;SDS011;59355;52.416;13.412;2023-04-06T02:01:27;13.80;;;12.47;;
2848;SDS011;59355;52.416;13.412;2023-04-06T02:03:52;14.27;;;12.77;;
2848;SDS011;59355;52.416;13.412;2023-04-06T02:06:17;15.20;;;13.60;;
2848;SDS011;59355;52.416;13.412;2023-04-06T02:08:43;14.17;;;12.60;;
2848;SDS011;59355;52.416;13.412;2023-04-06T02:11:08;14.93;;;13.43;;
2848;SDS011;59355;52.416;13.412;2023-04-06T02:13:33;14.40;;;12.90;;
2848;SDS011;59355;52.416;13.412;2023-04-06T02:15:59;15.20;;;13.73;;
2848;SDS011;59355;52.416;13.412;2023-04-06T02:18:24;14.33;;;12.93;;
2848;SDS011;59355;52.416;13.412;2023-04-06T02:20:50;16.20;;;13.10;;
2848;SDS011;59355;52.416;13.412;2023-04-06T02:23:15;14.47;;;13.17;;
2848;SDS011;59355;52.416;13.412;2023-04-06T02:25:41;15.73;;;14.20;;
2848;SDS011;59355;52.416;13.412;2023-04-06T02:28:06;15.53;;;14.03;;
2848;SDS011;59355;52.416;13.412;2023-04-06T02:30:32;12.80;;;11.60;;
2848;SDS011;59355;52.416;13.412;2023-04-06T02:32:57;13.07;;;11.97;;
2848;SDS011;59355;52.416;13.412;2023-04-06T02:35:24;14.80;;;13.40;;
2848;SDS011;59355;52.416;13.412;2023-04-06T02:37:50;13.87;;;12.40;;
2848;SDS011;59355;52.416;13.412;2023-04-06T02:40:15;15.43;;;13.93;;
2848;SDS011;59355;52.416;13.412;2023-04-06T02:42:40;14.90;;;12.73;;
2848;SDS011;59355;52.416;13.412;2023-04-06T02:45:06;14.20;;;12.83;;
2848;SDS011;59355;52.416;13.412;2023-04-06T02:47:32;16.80;;;13.73;;
2848;SDS011;59355;52.416;13.412;2023-04-06T02:49:58;14.30;;;12.80;;
2848;SDS011;59355;52.416;13.412;2023-04-06T02:52:23;12.53;;;11.27;;
2848;SDS011;59355;52.416;13.412;2023-04-06T02:54:48;15.50;;;14.00;;
2848;SDS011;59355;52.416;13.412;2023-04-06T02:57:15;16.83;;;15.17;;
2848;SDS011;59355;52.416;13.412;2023-04-06T02:59:41;16.27;;;14.67;;
2848;SDS011;59355;52.416;13.412;2023-04-06T03:02:06;14.90;;;13.50;;
2848;SDS011;59355;52.416;13.412;2023-04-06T03:04:31;14.70;;;13.30;;
2848;SDS011;59355;52.416;13.412;2023-04-06T03:06:57;15.63;;;14.23;;
2848;SDS011;59355;52.416;13.412;2023-04-06T03:09:22;17.40;;;15.40;;
2848;SDS011;59355;52.416;13.412;2023-04-06T03:11:47;15.07;;;13.27;;
2848;SDS011;59355;52.416;13.412;2023-04-06T03:14:13;14.03;;;12.53;;
2848;SDS011;59355;52.416;13.412;2023-04-06T03:16:38;16.00;;;13.90;;
2848;SDS011;59355;52.416;13.412;2023-04-06T03:19:03;16.60;;;14.90;;
2848;SDS011;59355;52.416;13.412;2023-04-06T03:21:28;16.93;;;15.37;;
2848;SDS011;59355;52.416;13.412;2023-04-06T03:23:54;15.00;;;13.50;;
2848;SDS011;59355;52.416;13.412;2023-04-06T03:26:19;15.73;;;14.33;;
2848;SDS011;59355;52.416;13.412;2023-04-06T03:28:45;16.00;;;14.50;;
2848;SDS011;59355;52.416;13.412;2023-04-06T03:31:10;16.03;;;14.50;;
2848;SDS011;59355;52.416;13.412;2023-04-06T03:33:35;16.00;;;14.40;;
2848;SDS011;59355;52.416;13.412;2023-04-06T03:36:01;20.20;;;14.17;;
2848;SDS011;59355;52.416;13.412;2023-04-06T03:38:26;17.93;;;14.33;;
2848;SDS011;59355;52.416;13.412;2023-04-06T03:40:51;15.60;;;14.20;;
2848;SDS011;59355;52.416;13.412;2023-04-06T03:43:16;16.63;;;15.00;;
2848;SDS011;59355;52.416;13.412;2023-04-06T03:45:42;17.33;;;15.57;;
2848;SDS011;59355;52.416;13.412;2023-04-06T03:48:07;17.37;;;15.73;;
2848;SDS011;59355;52.416;13.412;2023-04-06T03:50:32;17.87;;;16.23;;
2848;SDS011;59355;52.416;13.412;2023-04-06T03:52:58;17.20;;;15.60;;
2848;SDS011;59355;52.416;13.412;2023-04-06T03:55:23;18.30;;;16.43;;
2848;SDS011;59355;52.416;13.412;2023-04-06T03:57:48;18.90;;;16.47;;
2848;SDS011;59355;52.416;13.412;2023-04-06T04:00:14;17.23;;;15.63;;
2848;SDS011;59355;52.416;13.412;2023-04-06T04:02:39;17.97;;;16.17;;
2848;SDS011;59355;52.416;13.412;2023-04-06T04:05:05;19.33;;;17.43;;
2848;SDS011;59355;52.416;13.412;2023-04-06T04:07:30;19.83;;;17.73;;
2848;SDS011;59355;52.416;13.412;2023-04-06T04:09:56;17.70;;;16.00;;
2848;SDS011;59355;52.416;13.412;2023-04-06T04:12:21;16.80;;;15.40;;
2848;SDS011;59355;52.416;13.412;2023-04-06T04:14:46;21.90;;;17.13;;
2848;SDS011;59355;52.416;13.412;2023-04-06T04:17:12;22.80;;;18.30;;
2848;SDS011;59355;52.416;13.412;2023-04-06T04:19:37;17.43;;;15.63;;
2848;SDS011;59355;52.416;13.412;2023-04-06T04:22:02;18.40;;;16.70;;
2848;SDS011;59355;52.416;13.412;2023-04-06T04:24:29;19.43;;;17.43;;
2848;SDS011;59355;52.416;13.412;2023-04-06T04:26:55;17.53;;;15.60;;
2848;SDS011;59355;52.416;13.412;2023-04-06T04:29:21;19.30;;;17.50;;
2848;SDS011;59355;52.416;13.412;2023-04-06T04:31:47;19.27;;;16.80;;
2848;SDS011;59355;52.416;13.412;2023-04-06T04:34:12;16.70;;;15.00;;
2848;SDS011;59355;52.416;13.412;2023-04-06T04:36:38;18.97;;;16.97;;
2848;SDS011;59355;52.416;13.412;2023-04-06T04:39:06;19.27;;;17.20;;
2848;SDS011;59355;52.416;13.412;2023-04-06T04:41:31;19.20;;;17.40;;
2848;SDS011;59355;52.416;13.412;2023-04-06T04:43:57;21.07;;;16.20;;
2848;SDS011;59355;52.416;13.412;2023-04-06T04:46:22;18.67;;;16.80;;
2848;SDS011;59355;52.416;13.412;2023-04-06T04:48:47;17.67;;;15.93;;
2848;SDS011;59355;52.416;13.412;2023-04-06T04:51:12;19.47;;;17.50;;
2848;SDS011;59355;52.416;13.412;2023-04-06T04:53:38;20.27;;;17.17;;
2848;SDS011;59355;52.416;13.412;2023-04-06T04:56:03;20.13;;;18.13;;
2848;SDS011;59355;52.416;13.412;2023-04-06T04:58:28;19.80;;;17.73;;
2848;SDS011;59355;52.416;13.412;2023-04-06T05:00:54;18.50;;;16.93;;
2848;SDS011;59355;52.416;13.412;2023-04-06T05:03:20;19.67;;;17.67;;
2848;SDS011;59355;52.416;13.412;2023-04-06T05:05:47;19.63;;;17.60;;
2848;SDS011;59355;52.416;13.412;2023-04-06T05:08:12;19.63;;;17.70;;
2848;SDS011;59355;52.416;13.412;2023-04-06T05:10:38;18.70;;;16.47;;
2848;SDS011;59355;52.416;13.412;2023-04-06T05:13:03;18.80;;;17.00;;
2848;SDS011;59355;52.416;13.412;2023-04-06T05:15:28;17.93;;;16.07;;
2848;SDS011;59355;52.416;13.412;2023-04-06T05:17:54;17.93;;;16.43;;
2848;SDS011;59355;52.416;13.412;2023-04-06T05:20:19;19.90;;;16.77;;
2848;SDS011;59355;52.416;13.412;2023-04-06T05:22:45;17.80;;;16.03;;
2848;SDS011;59355;52.416;13.412;2023-04-06T05:25:10;17.67;;;15.90;;
2848;SDS011;59355;52.416;13.412;2023-04-06T05:27:35;17.30;;;15.50;;
2848;SDS011;59355;52.416;13.412;2023-04-06T05:30:01;15.83;;;14.43;;
2848;SDS011;59355;52.416;13.412;2023-04-06T05:32:27;17.07;;;15.57;;
2848;SDS011;59355;52.416;13.412;2023-04-06T05:34:52;18.13;;;15.73;;
2848;SDS011;59355;52.416;13.412;2023-04-06T05:37:17;18.03;;;14.23;;
2848;SDS011;59355;52.416;13.412;2023-04-06T05:39:43;15.77;;;14.13;;
2848;SDS011;59355;52.416;13.412;2023-04-06T05:42:08;18.60;;;14.43;;
2848;SDS011;59355;52.416;13.412;2023-04-06T05:44:33;16.43;;;13.13;;
2848;SDS011;59355;52.416;13.412;2023-04-06T05:46:59;20.87;;;13.13;;
2848;SDS011;59355;52.416;13.412;2023-04-06T05:49:24;13.23;;;11.93;;
2848;SDS011;59355;52.416;13.412;2023-04-06T05:51:49;15.20;;;12.73;;
2848;SDS011;59355;52.416;13.412;2023-04-06T05:54:15;15.80;;;12.30;;
2848;SDS011;59355;52.416;13.412;2023-04-06T05:56:40;15.10;;;13.50;;
2848;SDS011;59355;52.416;13.412;2023-04-06T05:59:05;18.70;;;13.07;;
2848;SDS011;59355;52.416;13.412;2023-04-06T06:01:31;14.97;;;13.37;;
2848;SDS011;59355;52.416;13.412;2023-04-06T06:03:56;14.37;;;12.43;;
2848;SDS011;59355;52.416;13.412;2023-04-06T06:06:21;14.70;;;13.20;;
2848;SDS011;59355;52.416;13.412;2023-04-06T06:08:47;15.53;;;13.80;;
2848;SDS011;59355;52.416;13.412;2023-04-06T06:11:12;13.30;;;12.00;;
2848;SDS011;59355;52.416;13.412;2023-04-06T06:13:37;13.57;;;12.03;;
2848;SDS011;59355;52.416;13.412;2023-04-06T06:16:03;17.27;;;13.13;;
2848;SDS011;59355;52.416;13.412;2023-04-06T06:18:30;15.20;;;12.50;;
2848;SDS011;59355;52.416;13.412;2023-04-06T06:20:55;17.73;;;12.40;;
2848;SDS011;59355;52.416;13.412;2023-04-06T06:23:20;14.30;;;12.83;;
2848;SDS011;59355;52.416;13.412;2023-04-06T06:25:46;12.30;;;11.00;;
2848;SDS011;59355;52.416;13.412;2023-04-06T06:28:11;12.67;;;11.43;;
2848;SDS011;59355;52.416;13.412;2023-04-06T06:30:37;13.57;;;12.17;;
2848;SDS011;59355;52.416;13.412;2023-04-06T06:33:02;13.70;;;11.33;;
2848;SDS011;59355;52.416;13.412;2023-04-06T06:35:28;12.97;;;11.77;;
2848;SDS011;59355;52.416;13.412;2023-04-06T06:37:53;12.27;;;11.17;;
2848;SDS011;59355;52.416;13.412;2023-04-06T06:40:18;12.07;;;10.80;;
2848;SDS011;59355;52.416;13.412;2023-04-06T06:42:44;15.70;;;11.33;;
2848;SDS011;59355;52.416;13.412;2023-04-06T06:45:10;12.37;;;11.10;;
2848;SDS011;59355;52.416;13.412;2023-04-06T06:47:35;14.17;;;11.33;;
2848;SDS011;59355;52.416;13.412;2023-04-06T06:50:00;10.63;;;9.63;;
2848;SDS011;59355;52.416;13.412;2023-04-06T06:52:27;12.10;;;10.00;;
2848;SDS011;59355;52.416;13.412;2023-04-06T06:54:53;13.20;;;9.80;;
2848;SDS011;59355;52.416;13.412;2023-04-06T06:57:19;11.00;;;9.90;;
2848;SDS011;59355;52.416;13.412;2023-04-06T06:59:44;10.63;;;9.53;;
2848;SDS011;59355;52.416;13.412;2023-04-06T07:02:09;11.07;;;9.40;;
2848;SDS011;59355;52.416;13.412;2023-04-06T07:04:35;9.20;;;8.23;;
2848;SDS011;59355;52.416;13.412;2023-04-06T07:07:00;13.50;;;9.30;;
2848;SDS011;59355;52.416;13.412;2023-04-06T07:09:26;10.77;;;9.63;;
2848;SDS011;59355;52.416;13.412;2023-04-06T07:11:51;12.00;;;10.27;;
2848;SDS011;59355;52.416;13.412;2023-04-06T07:14:17;13.23;;;9.20;;
2848;SDS011;59355;52.416;13.412;2023-04-06T07:16:42;11.10;;;9.80;;
2848;SDS011;59355;52.416;13.412;2023-04-06T07:19:09;9.37;;;8.37;;
2848;SDS011;59355;52.416;13.412;2023-04-06T07:21:35;11.47;;;10.20;;
2848;SDS011;59355;52.416;13.412;2023-04-06T07:24:00;10.47;;;9.30;;
2848;SDS011;59355;52.416;13.412;2023-04-06T07:26:26;9.60;;;8.70;;
2848;SDS011;59355;52.416;13.412;2023-04-06T07:28:52;9.27;;;8.47;;
2848;SDS011;59355;52.416;13.412;2023-04-06T07:31:17;8.60;;;7.80;;
2848;SDS011;59355;52.416;13.412;2023-04-06T07:33:42;8.07;;;7.27;;
2848;SDS011;59355;52.416;13.412;2023-04-06T07:36:08;7.50;;;6.90;;
2848;SDS011;59355;52.416;13.412;2023-04-06T07:38:33;7.30;;;6.53;;
2848;SDS011;59355;52.416;13.412;2023-04-06T07:40:58;8.70;;;7.80;;
2848;SDS011;59355;52.416;13.412;2023-04-06T07:43:24;8.60;;;7.20;;
2848;SDS011;59355;52.416;13.412;2023-04-06T07:45:49;7.90;;;7.20;;
2848;SDS011;59355;52.416;13.412;2023-04-06T07:48:15;9.60;;;7.50;;
2848;SDS011;59355;52.416;13.412;2023-04-06T07:50:40;7.83;;;7.13;;
2848;SDS011;59355;52.416;13.412;2023-04-06T07:53:05;12.00;;;7.97;;
2848;SDS011;59355;52.416;13.412;2023-04-06T07:55:31;10.37;;;7.77;;
2848;SDS011;59355;52.416;13.412;2023-04-06T07:57:56;10.70;;;8.30;;
2848;SDS011;59355;52.416;13.412;2023-04-06T08:00:21;8.47;;;7.67;;
2848;SDS011;59355;52.416;13.412;2023-04-06T08:02:47;8.83;;;7.80;;
2848;SDS011;59355;52.416;13.412;2023-04-06T08:05:12;9.93;;;7.70;;
2848;SDS011;59355;52.416;13.412;2023-04-06T08:07:37;8.47;;;7.67;;
2848;SDS011;59355;52.416;13.412;2023-04-06T08:10:03;7.80;;;7.10;;
2848;SDS011;59355;52.416;13.412;2023-04-06T08:12:28;8.70;;;6.57;;
2848;SDS011;59355;52.416;13.412;2023-04-06T08:14:54;8.40;;;6.23;;
2848;SDS011;59355;52.416;13.412;2023-04-06T08:17:19;6.53;;;5.70;;
2848;SDS011;59355;52.416;13.412;2023-04-06T08:19:44;6.57;;;5.90;;
2848;SDS011;59355;52.416;13.412;2023-04-06T08:22:10;7.40;;;5.20;;
2848;SDS011;59355;52.416;13.412;2023-04-06T08:24:36;5.73;;;5.17;;
2848;SDS011;59355;52.416;13.412;2023-04-06T08:27:01;5.90;;;5.30;;
2848;SDS011;59355;52.416;13.412;2023-04-06T08:29:27;5.30;;;4.80;;
2848;SDS011;59355;52.416;13.412;2023-04-06T08:31:52;5.83;;;5.23;;
2848;SDS011;59355;52.416;13.412;2023-04-06T08:34:17;6.17;;;5.57;;
2848;SDS011;59355;52.416;13.412;2023-04-06T08:36:43;5.97;;;5.10;;
2848;SDS011;59355;52.416;13.412;2023-04-06T08:39:08;5.03;;;4.60;;
2848;SDS011;59355;52.416;13.412;2023-04-06T08:41:33;5.17;;;4.50;;
2848;SDS011;59355;52.416;13.412;2023-04-06T08:43:59;5.23;;;4.50;;
2848;SDS011;59355;52.416;13.412;2023-04-06T08:46:26;6.20;;;4.60;;
2848;SDS011;59355;52.416;13.412;2023-04-06T08:48:54;4.70;;;4.30;;
2848;SDS011;59355;52.416;13.412;2023-04-06T08:51:21;4.17;;;3.77;;
2848;SDS011;59355;52.416;13.412;2023-04-06T08:53:48;4.67;;;3.70;;
2848;SDS011;59355;52.416;13.412;2023-04-06T08:56:15;4.57;;;4.17;;
2848;SDS011;59355;52.416;13.412;2023-04-06T08:58:40;6.53;;;3.80;;
2848;SDS011;59355;52.416;13.412;2023-04-06T09:01:06;4.80;;;4.37;;
2848;SDS011;59355;52.416;13.412;2023-04-06T09:03:35;3.97;;;3.60;;
2848;SDS011;59355;52.416;13.412;2023-04-06T09:06:03;4.63;;;3.37;;
2848;SDS011;59355;52.416;13.412;2023-04-06T09:08:29;5.30;;;4.37;;
2848;SDS011;59355;52.416;13.412;2023-04-06T09:10:54;5.13;;;4.03;;
2848;SDS011;59355;52.416;13.412;2023-04-06T09:13:19;5.47;;;3.50;;
2848;SDS011;59355;52.416;13.412;2023-04-06T09:15:45;6.03;;;4.70;;
2848;SDS011;59355;52.416;13.412;2023-04-06T09:18:10;4.93;;;3.60;;
2848;SDS011;59355;52.416;13.412;2023-04-06T09:20:35;4.30;;;3.40;;
2848;SDS011;59355;52.416;13.412;2023-04-06T09:23:01;5.80;;;3.50;;
2848;SDS011;59355;52.416;13.412;2023-04-06T09:25:26;4.30;;;3.90;;
2848;SDS011;59355;52.416;13.412;2023-04-06T09:27:58;4.77;;;4.10;;
2848;SDS011;59355;52.416;13.412;2023-04-06T09:30:25;4.90;;;4.27;;
2848;SDS011;59355;52.416;13.412;2023-04-06T09:32:52;4.97;;;3.40;;
2848;SDS011;59355;52.416;13.412;2023-04-06T09:35:18;5.00;;;3.27;;
2848;SDS011;59355;52.416;13.412;2023-04-06T09:37:45;3.37;;;3.07;;
2848;SDS011;59355;52.416;13.412;2023-04-06T09:40:11;4.17;;;3.20;;
2848;SDS011;59355;52.416;13.412;2023-04-06T09:42:40;4.70;;;2.90;;
2848;SDS011;59355;52.416;13.412;2023-04-06T09:45:06;3.83;;;2.80;;
2848;SDS011;59355;52.416;13.412;2023-04-06T09:47:32;4.17;;;3.63;;
2848;SDS011;59355;52.416;13.412;2023-04-06T09:49:58;4.77;;;3.33;;
2848;SDS011;59355;52.416;13.412;2023-04-06T09:52:27;3.30;;;2.63;;
2848;SDS011;59355;52.416;13.412;2023-04-06T09:54:59;3.60;;;3.30;;
2848;SDS011;59355;52.416;13.412;2023-04-06T09:57:50;3.50;;;3.17;;
2848;SDS011;59355;52.416;13.412;2023-04-06T10:00:18;3.43;;;3.13;;
2848;SDS011;59355;52.416;13.412;2023-04-06T10:08:11;6.30;;;3.60;;
2848;SDS011;59355;52.416;13.412;2023-04-06T10:10:37;4.30;;;3.33;;
2848;SDS011;59355;52.416;13.412;2023-04-06T10:13:03;3.30;;;3.00;;
2848;SDS011;59355;52.416;13.412;2023-04-06T10:15:29;6.40;;;3.47;;
2848;SDS011;59355;52.416;13.412;2023-04-06T10:17:55;4.47;;;3.30;;
2848;SDS011;59355;52.416;13.412;2023-04-06T10:20:29;3.93;;;3.13;;
2848;SDS011;59355;52.416;13.412;2023-04-06T10:22:56;3.57;;;2.80;;
2848;SDS011;59355;52.416;13.412;2023-04-06T10:25:30;3.87;;;3.47;;
2848;SDS011;59355;52.416;13.412;2023-04-06T10:28:00;5.83;;;3.63;;
2848;SDS011;59355;52.416;13.412;2023-04-06T10:30:26;3.57;;;3.27;;
2848;SDS011;59355;52.416;13.412;2023-04-06T10:32:53;4.20;;;3.13;;
2848;SDS011;59355;52.416;13.412;2023-04-06T10:35:18;3.43;;;3.13;;
2848;SDS011;59355;52.416;13.412;2023-04-06T10:37:50;3.90;;;3.20;;
2848;SDS011;59355;52.416;13.412;2023-04-06T10:40:25;4.03;;;3.40;;
2848;SDS011;59355;52.416;13.412;2023-04-06T10:42:52;4.07;;;3.67;;
2848;SDS011;59355;52.416;13.412;2023-04-06T10:45:23;4.43;;;3.50;;
2848;SDS011;59355;52.416;13.412;2023-04-06T10:47:50;3.43;;;3.10;;
2848;SDS011;59355;52.416;13.412;2023-04-06T10:50:17;3.90;;;2.90;;
2848;SDS011;59355;52.416;13.412;2023-04-06T10:52:46;3.40;;;3.10;;
2848;SDS011;59355;52.416;13.412;2023-04-06T10:55:15;4.13;;;3.13;;
2848;SDS011;59355;52.416;13.412;2023-04-06T10:57:41;3.30;;;2.70;;
2848;SDS011;59355;52.416;13.412;2023-04-06T11:00:07;3.47;;;3.07;;
2848;SDS011;59355;52.416;13.412;2023-04-06T11:02:33;3.93;;;3.23;;
2848;SDS011;59355;52.416;13.412;2023-04-06T11:04:59;3.73;;;3.30;;
2848;SDS011;59355;52.416;13.412;2023-04-06T11:07:25;3.60;;;3.10;;
2848;SDS011;59355;52.416;13.412;2023-04-06T11:09:52;3.27;;;2.90;;
2848;SDS011;59355;52.416;13.412;2023-04-06T11:12:24;4.57;;;3.60;;
2848;SDS011;59355;52.416;13.412;2023-04-06T11:14:57;3.90;;;3.50;;
2848;SDS011;59355;52.416;13.412;2023-04-06T11:17:31;7.90;;;3.97;;
2848;SDS011;59355;52.416;13.412;2023-04-06T11:20:00;3.63;;;3.27;;
2848;SDS011;59355;52.416;13.412;2023-04-06T11:22:27;7.30;;;6.40;;
2848;SDS011;59355;52.416;13.412;2023-04-06T11:24:52;3.80;;;3.43;;
2848;SDS011;59355;52.416;13.412;2023-04-06T11:27:18;3.70;;;3.27;;
2848;SDS011;59355;52.416;13.412;2023-04-06T11:29:44;3.80;;;3.37;;
2848;SDS011;59355;52.416;13.412;2023-04-06T11:32:19;3.70;;;2.77;;
2848;SDS011;59355;52.416;13.412;2023-04-06T11:34:46;3.77;;;3.47;;
2848;SDS011;59355;52.416;13.412;2023-04-06T11:37:12;4.20;;;3.80;;
2848;SDS011;59355;52.416;13.412;2023-04-06T11:39:38;5.60;;;3.13;;
2848;SDS011;59355;52.416;13.412;2023-04-06T11:42:05;4.20;;;3.90;;
2848;SDS011;59355;52.416;13.412;2023-04-06T11:47:06;4.33;;;3.50;;
2848;SDS011;59355;52.416;13.412;2023-04-06T11:49:33;4.03;;;3.63;;
2848;SDS011;59355;52.416;13.412;2023-04-06T11:52:00;3.87;;;3.37;;
2848;SDS011;59355;52.416;13.412;2023-04-06T11:54:32;6.30;;;3.70;;
2848;SDS011;59355;52.416;13.412;2023-04-06T11:56:58;3.40;;;3.10;;
2848;SDS011;59355;52.416;13.412;2023-04-06T11:59:23;4.70;;;3.73;;
2848;SDS011;59355;52.416;13.412;2023-04-06T12:01:49;4.70;;;3.07;;
2848;SDS011;59355;52.416;13.412;2023-04-06T12:04:14;3.73;;;3.30;;
2848;SDS011;59355;52.416;13.412;2023-04-06T12:06:39;4.60;;;4.17;;
2848;SDS011;59355;52.416;13.412;2023-04-06T12:09:05;4.33;;;3.90;;
2848;SDS011;59355;52.416;13.412;2023-04-06T12:11:30;4.87;;;4.47;;
2848;SDS011;59355;52.416;13.412;2023-04-06T12:13:55;4.63;;;4.20;;
2848;SDS011;59355;52.416;13.412;2023-04-06T12:16:21;4.07;;;3.73;;
2848;SDS011;59355;52.416;13.412;2023-04-06T12:18:46;4.10;;;3.70;;
2848;SDS011;59355;52.416;13.412;2023-04-06T12:21:11;4.03;;;3.63;;
2848;SDS011;59355;52.416;13.412;2023-04-06T12:23:37;4.20;;;3.80;;
2848;SDS011;59355;52.416;13.412;2023-04-06T12:26:02;4.37;;;3.97;;
2848;SDS011;59355;52.416;13.412;2023-04-06T12:28:28;3.90;;;3.60;;
2848;SDS011;59355;52.416;13.412;2023-04-06T12:30:53;5.50;;;4.50;;
2848;SDS011;59355;52.416;13.412;2023-04-06T12:33:19;4.37;;;3.80;;
2848;SDS011;59355;52.416;13.412;2023-04-06T12:35:45;4.30;;;3.90;;
2848;SDS011;59355;52.416;13.412;2023-04-06T12:38:10;6.43;;;4.43;;
2848;SDS011;59355;52.416;13.412;2023-04-06T12:40:36;5.87;;;4.10;;
2848;SDS011;59355;52.416;13.412;2023-04-06T12:43:05;4.50;;;3.90;;
2848;SDS011;59355;52.416;13.412;2023-04-06T12:45:31;4.97;;;3.90;;
2848;SDS011;59355;52.416;13.412;2023-04-06T12:47:56;5.17;;;4.67;;
2848;SDS011;59355;52.416;13.412;2023-04-06T12:50:22;4.00;;;3.60;;
2848;SDS011;59355;52.416;13.412;2023-04-06T12:52:47;5.53;;;3.70;;
2848;SDS011;59355;52.416;13.412;2023-04-06T12:55:12;4.30;;;3.73;;
2848;SDS011;59355;52.416;13.412;2023-04-06T12:57:38;4.03;;;3.53;;
2848;SDS011;59355;52.416;13.412;2023-04-06T13:00:03;4.93;;;4.03;;
2848;SDS011;59355;52.416;13.412;2023-04-06T13:02:30;5.43;;;3.80;;
2848;SDS011;59355;52.416;13.412;2023-04-06T13:04:55;6.07;;;4.40;;
2848;SDS011;59355;52.416;13.412;2023-04-06T13:07:21;6.17;;;4.13;;
2848;SDS011;59355;52.416;13.412;2023-04-06T13:09:46;3.93;;;3.63;;
2848;SDS011;59355;52.416;13.412;2023-04-06T13:12:14;4.53;;;4.13;;
2848;SDS011;59355;52.416;13.412;2023-04-06T13:14:39;4.70;;;3.97;;
2848;SDS011;59355;52.416;13.412;2023-04-06T13:17:05;5.30;;;4.77;;
2848;SDS011;59355;52.416;13.412;2023-04-06T13:19:31;5.10;;;4.20;;
2848;SDS011;59355;52.416;13.412;2023-04-06T13:21:56;4.83;;;4.43;;
2848;SDS011;59355;52.416;13.412;2023-04-06T13:24:22;5.23;;;4.73;;
2848;SDS011;59355;52.416;13.412;2023-04-06T13:26:48;4.90;;;4.20;;
2848;SDS011;59355;52.416;13.412;2023-04-06T13:29:13;4.40;;;4.00;;
2848;SDS011;59355;52.416;13.412;2023-04-06T13:31:38;5.20;;;4.70;;
2848;SDS011;59355;52.416;13.412;2023-04-06T13:34:04;5.47;;;4.70;;
2848;SDS011;59355;52.416;13.412;2023-04-06T13:36:29;4.90;;;4.40;;
2848;SDS011;59355;52.416;13.412;2023-04-06T13:38:55;5.70;;;4.53;;
2848;SDS011;59355;52.416;13.412;2023-04-06T13:41:21;4.23;;;3.83;;
2848;SDS011;59355;52.416;13.412;2023-04-06T13:43:47;6.63;;;4.30;;
2848;SDS011;59355;52.416;13.412;2023-04-06T13:46:12;4.80;;;4.03;;
2848;SDS011;59355;52.416;13.412;2023-04-06T13:48:38;5.83;;;4.90;;
2848;SDS011;59355;52.416;13.412;2023-04-06T13:53:35;6.50;;;3.77;;
2848;SDS011;59355;52.416;13.412;2023-04-06T13:56:00;5.40;;;5.00;;
2848;SDS011;59355;52.416;13.412;2023-04-06T13:58:25;4.57;;;4.17;;
2848;SDS011;59355;52.416;13.412;2023-04-06T14:00:51;4.77;;;4.30;;
2848;SDS011;59355;52.416;13.412;2023-04-06T14:03:17;4.70;;;4.30;;
2848;SDS011;59355;52.416;13.412;2023-04-06T14:05:42;5.63;;;4.23;;
2848;SDS011;59355;52.416;13.412;2023-04-06T14:08:09;5.80;;;4.53;;
2848;SDS011;59355;52.416;13.412;2023-04-06T14:10:38;5.73;;;4.90;;
2848;SDS011;59355;52.416;13.412;2023-04-06T14:13:04;4.73;;;4.20;;
2848;SDS011;59355;52.416;13.412;2023-04-06T14:15:29;4.97;;;4.47;;
2848;SDS011;59355;52.416;13.412;2023-04-06T14:17:54;5.23;;;4.50;;
2848;SDS011;59355;52.416;13.412;2023-04-06T14:20:20;5.10;;;4.50;;
2848;SDS011;59355;52.416;13.412;2023-04-06T14:22:45;5.40;;;4.90;;
2848;SDS011;59355;52.416;13.412;2023-04-06T14:25:12;5.40;;;4.90;;
2848;SDS011;59355;52.416;13.412;2023-04-06T14:27:37;4.37;;;3.70;;
2848;SDS011;59355;52.416;13.412;2023-04-06T14:30:03;5.40;;;4.80;;
2848;SDS011;59355;52.416;13.412;2023-04-06T14:32:28;5.57;;;4.50;;
2848;SDS011;59355;52.416;13.412;2023-04-06T14:34:54;5.03;;;4.53;;